Thurston, United Kingdom
Current Conditions -  °F | °C
As of 10:50 AM on Sunday 23 Nov 2014 (Local Time) from EGUW Reporting Station
Moderate Rain Moderate Rain  
Wind Chill: 40°   Ceiling: 2200
Heat Index: 46°   Visibility: 6mi
Dew Point: 46°   Wind: 14mph
Humidity: 100%   Direction: 330°NNW
Pressure: 29.97"   Gusts: NA
Location:  52.25°N, 0.81°E
Report Text: EGUW 231050Z AUTO 33012KT 9999 RA SCT005/// BKN022/// 08/08 Q1015
Loading
Personal Weather Stations






























Interactive Weather Map New forecast layout! Learn more

10-Day Weather Forecast

Advertisements
Track Severe Weather on mobile